sensor_id;sensor_type;location;lat;lon;timestamp;pressure;altitude;pressure_sealevel;temperature;humidity
42669;BME280;29384;42.028;21.388;2022-09-09T00:01:19;98622.66;;;19.83;99.15
42669;BME280;29384;42.028;21.388;2022-09-09T00:03:53;98626.59;;;19.94;99.70
42669;BME280;29384;42.028;21.388;2022-09-09T00:06:31;98620.97;;;19.96;100.00
42669;BME280;29384;42.028;21.388;2022-09-09T00:09:15;98627.91;;;20.05;100.00
42669;BME280;29384;42.028;21.388;2022-09-09T00:15:14;98619.97;;;19.61;99.38
42669;BME280;29384;42.028;21.388;2022-09-09T00:20:16;98617.84;;;19.63;100.00
42669;BME280;29384;42.028;21.388;2022-09-09T00:22:48;98615.75;;;19.59;100.00
42669;BME280;29384;42.028;21.388;2022-09-09T00:25:28;98616.47;;;19.51;100.00
42669;BME280;29384;42.028;21.388;2022-09-09T00:31:21;98614.28;;;19.08;100.00
42669;BME280;29384;42.028;21.388;2022-09-09T00:33:49;98605.97;;;19.24;100.00
42669;BME280;29384;42.028;21.388;2022-09-09T00:36:20;98608.88;;;19.36;100.00
42669;BME280;29384;42.028;21.388;2022-09-09T00:38:59;98612.63;;;19.35;100.00
42669;BME280;29384;42.028;21.388;2022-09-09T00:48:22;98604.66;;;19.35;99.94
42669;BME280;29384;42.028;21.388;2022-09-09T00:50:56;98601.03;;;19.31;100.00
42669;BME280;29384;42.028;21.388;2022-09-09T00:56:38;98607.81;;;19.01;100.00
42669;BME280;29384;42.028;21.388;2022-09-09T00:59:52;98610.59;;;19.18;100.00
42669;BME280;29384;42.028;21.388;2022-09-09T01:02:39;98612.56;;;19.26;100.00
42669;BME280;29384;42.028;21.388;2022-09-09T01:05:18;98612.44;;;19.31;100.00
42669;BME280;29384;42.028;21.388;2022-09-09T01:07:48;98615.56;;;19.33;100.00
42669;BME280;29384;42.028;21.388;2022-09-09T01:10:24;98607.91;;;19.32;100.00
42669;BME280;29384;42.028;21.388;2022-09-09T01:16:16;98606.97;;;19.14;100.00
42669;BME280;29384;42.028;21.388;2022-09-09T01:18:49;98616.44;;;19.06;100.00
42669;BME280;29384;42.028;21.388;2022-09-09T01:21:31;98619.28;;;19.10;100.00
42669;BME280;29384;42.028;21.388;2022-09-09T01:24:19;98624.97;;;19.03;100.00
42669;BME280;29384;42.028;21.388;2022-09-09T01:26:46;98629.56;;;19.11;100.00
42669;BME280;29384;42.028;21.388;2022-09-09T01:32:47;98630.22;;;18.81;100.00
42669;BME280;29384;42.028;21.388;2022-09-09T01:35:31;98627.19;;;18.74;100.00
42669;BME280;29384;42.028;21.388;2022-09-09T01:37:58;98616.38;;;18.70;100.00
42669;BME280;29384;42.028;21.388;2022-09-09T01:40:24;98619.50;;;18.58;100.00
42669;BME280;29384;42.028;21.388;2022-09-09T01:42:51;98614.72;;;18.47;100.00
42669;BME280;29384;42.028;21.388;2022-09-09T01:45:17;98612.75;;;18.38;100.00
42669;BME280;29384;42.028;21.388;2022-09-09T01:47:43;98633.84;;;18.57;100.00
42669;BME280;29384;42.028;21.388;2022-09-09T01:50:10;98626.19;;;18.42;100.00
42669;BME280;29384;42.028;21.388;2022-09-09T01:52:37;98627.47;;;18.45;100.00
42669;BME280;29384;42.028;21.388;2022-09-09T01:55:04;98614.72;;;18.47;100.00
42669;BME280;29384;42.028;21.388;2022-09-09T02:00:44;98624.81;;;18.58;100.00
42669;BME280;29384;42.028;21.388;2022-09-09T02:03:26;98633.06;;;18.71;100.00
42669;BME280;29384;42.028;21.388;2022-09-09T02:08:52;98625.03;;;18.76;100.00
42669;BME280;29384;42.028;21.388;2022-09-09T02:11:19;98625.53;;;18.78;100.00
42669;BME280;29384;42.028;21.388;2022-09-09T02:13:48;98628.03;;;18.69;100.00
42669;BME280;29384;42.028;21.388;2022-09-09T02:16:38;98624.53;;;18.60;100.00
42669;BME280;29384;42.028;21.388;2022-09-09T02:19:13;98616.28;;;18.48;100.00
42669;BME280;29384;42.028;21.388;2022-09-09T02:21:42;98611.69;;;18.53;100.00
42669;BME280;29384;42.028;21.388;2022-09-09T02:24:11;98627.38;;;18.36;100.00
42669;BME280;29384;42.028;21.388;2022-09-09T02:26:41;98635.31;;;18.36;99.81
42669;BME280;29384;42.028;21.388;2022-09-09T02:29:14;98636.41;;;18.35;100.00
42669;BME280;29384;42.028;21.388;2022-09-09T02:31:42;98635.72;;;18.43;100.00
42669;BME280;29384;42.028;21.388;2022-09-09T02:34:10;98633.25;;;18.47;100.00
42669;BME280;29384;42.028;21.388;2022-09-09T02:36:38;98618.94;;;18.34;100.00
42669;BME280;29384;42.028;21.388;2022-09-09T02:39:07;98625.88;;;18.16;100.00
42669;BME280;29384;42.028;21.388;2022-09-09T02:41:36;98622.94;;;18.18;100.00
42669;BME280;29384;42.028;21.388;2022-09-09T02:44:08;98620.78;;;18.20;100.00
42669;BME280;29384;42.028;21.388;2022-09-09T02:52:14;98618.06;;;18.25;100.00
42669;BME280;29384;42.028;21.388;2022-09-09T02:54:44;98620.59;;;18.30;100.00
42669;BME280;29384;42.028;21.388;2022-09-09T03:00:31;98626.06;;;17.92;100.00
42669;BME280;29384;42.028;21.388;2022-09-09T03:02:58;98620.75;;;17.92;100.00
42669;BME280;29384;42.028;21.388;2022-09-09T03:05:24;98622.41;;;17.88;100.00
42669;BME280;29384;42.028;21.388;2022-09-09T03:07:49;98620.03;;;17.54;100.00
42669;BME280;29384;42.028;21.388;2022-09-09T03:10:16;98628.28;;;17.66;100.00
42669;BME280;29384;42.028;21.388;2022-09-09T03:16:04;98614.66;;;17.78;100.00
42669;BME280;29384;42.028;21.388;2022-09-09T03:18:29;98623.38;;;17.78;100.00
42669;BME280;29384;42.028;21.388;2022-09-09T03:20:55;98624.06;;;17.84;100.00
42669;BME280;29384;42.028;21.388;2022-09-09T03:23:20;98636.94;;;18.04;100.00
42669;BME280;29384;42.028;21.388;2022-09-09T03:25:48;98647.34;;;18.14;100.00
42669;BME280;29384;42.028;21.388;2022-09-09T03:31:35;98658.63;;;18.20;100.00
42669;BME280;29384;42.028;21.388;2022-09-09T03:34:01;98650.03;;;18.28;100.00
42669;BME280;29384;42.028;21.388;2022-09-09T03:36:27;98622.97;;;18.31;100.00
42669;BME280;29384;42.028;21.388;2022-09-09T03:38:53;98624.31;;;18.29;100.00
42669;BME280;29384;42.028;21.388;2022-09-09T03:41:24;98627.56;;;18.26;100.00
42669;BME280;29384;42.028;21.388;2022-09-09T03:47:10;98634.22;;;18.09;100.00
42669;BME280;29384;42.028;21.388;2022-09-09T03:49:36;98634.88;;;18.01;100.00
42669;BME280;29384;42.028;21.388;2022-09-09T03:52:02;98623.97;;;17.89;100.00
42669;BME280;29384;42.028;21.388;2022-09-09T03:54:27;98633.31;;;18.00;100.00
42669;BME280;29384;42.028;21.388;2022-09-09T03:56:53;98617.34;;;18.05;100.00
42669;BME280;29384;42.028;21.388;2022-09-09T04:02:40;98609.38;;;18.05;100.00
42669;BME280;29384;42.028;21.388;2022-09-09T04:05:06;98614.31;;;18.12;100.00
42669;BME280;29384;42.028;21.388;2022-09-09T04:07:32;98612.94;;;18.14;100.00
42669;BME280;29384;42.028;21.388;2022-09-09T04:09:57;98615.19;;;18.07;100.00
42669;BME280;29384;42.028;21.388;2022-09-09T04:12:23;98613.69;;;18.01;100.00
42669;BME280;29384;42.028;21.388;2022-09-09T04:18:09;98610.47;;;18.04;100.00
42669;BME280;29384;42.028;21.388;2022-09-09T04:20:35;98621.25;;;18.08;100.00
42669;BME280;29384;42.028;21.388;2022-09-09T04:23:01;98614.22;;;18.03;100.00
42669;BME280;29384;42.028;21.388;2022-09-09T04:25:26;98610.00;;;18.16;100.00
42669;BME280;29384;42.028;21.388;2022-09-09T04:27:55;98604.22;;;18.28;100.00
42669;BME280;29384;42.028;21.388;2022-09-09T04:30:21;98613.44;;;18.17;100.00
42669;BME280;29384;42.028;21.388;2022-09-09T04:32:47;98624.81;;;18.31;100.00
42669;BME280;29384;42.028;21.388;2022-09-09T04:35:13;98614.91;;;18.36;100.00
42669;BME280;29384;42.028;21.388;2022-09-09T04:37:38;98609.03;;;18.53;100.00
42669;BME280;29384;42.028;21.388;2022-09-09T04:40:05;98610.59;;;18.54;100.00
42669;BME280;29384;42.028;21.388;2022-09-09T04:42:37;98621.09;;;18.59;100.00
42669;BME280;29384;42.028;21.388;2022-09-09T04:48:25;98630.91;;;18.73;100.00
42669;BME280;29384;42.028;21.388;2022-09-09T04:50:59;98628.84;;;18.70;100.00
42669;BME280;29384;42.028;21.388;2022-09-09T04:53:25;98628.16;;;18.78;100.00
42669;BME280;29384;42.028;21.388;2022-09-09T04:55:52;98637.00;;;18.87;100.00
42669;BME280;29384;42.028;21.388;2022-09-09T04:58:18;98628.94;;;18.92;100.00
42669;BME280;29384;42.028;21.388;2022-09-09T05:00:43;98626.06;;;19.02;100.00
42669;BME280;29384;42.028;21.388;2022-09-09T05:03:09;98633.91;;;19.07;100.00
42669;BME280;29384;42.028;21.388;2022-09-09T05:05:34;98634.78;;;19.17;100.00
42669;BME280;29384;42.028;21.388;2022-09-09T05:08:05;98630.22;;;19.31;100.00
42669;BME280;29384;42.028;21.388;2022-09-09T05:10:32;98625.78;;;19.40;100.00
42669;BME280;29384;42.028;21.388;2022-09-09T05:12:57;98632.59;;;19.55;100.00
42669;BME280;29384;42.028;21.388;2022-09-09T05:18:45;98639.59;;;19.73;100.00
42669;BME280;29384;42.028;21.388;2022-09-09T05:21:15;98643.09;;;19.83;100.00
42669;BME280;29384;42.028;21.388;2022-09-09T05:23:41;98656.75;;;19.98;100.00
42669;BME280;29384;42.028;21.388;2022-09-09T05:26:11;98659.34;;;20.12;100.00
42669;BME280;29384;42.028;21.388;2022-09-09T05:28:37;98656.16;;;20.33;100.00
42669;BME280;29384;42.028;21.388;2022-09-09T05:31:07;98653.44;;;20.55;99.20
42669;BME280;29384;42.028;21.388;2022-09-09T05:33:34;98663.34;;;20.72;98.10
42669;BME280;29384;42.028;21.388;2022-09-09T05:36:08;98658.41;;;20.96;96.33
42669;BME280;29384;42.028;21.388;2022-09-09T05:38:34;98658.72;;;21.12;95.09
42669;BME280;29384;42.028;21.388;2022-09-09T05:41:02;98677.25;;;21.52;94.31
42669;BME280;29384;42.028;21.388;2022-09-09T05:43:28;98665.94;;;21.72;91.12
42669;BME280;29384;42.028;21.388;2022-09-09T05:46:11;98666.56;;;21.95;89.72
42669;BME280;29384;42.028;21.388;2022-09-09T05:48:38;98667.75;;;22.24;88.30
42669;BME280;29384;42.028;21.388;2022-09-09T05:51:06;98670.56;;;22.28;85.15
42669;BME280;29384;42.028;21.388;2022-09-09T05:53:32;98673.25;;;22.10;86.16
42669;BME280;29384;42.028;21.388;2022-09-09T05:56:04;98662.59;;;22.10;87.61
42669;BME280;29384;42.028;21.388;2022-09-09T05:58:34;98661.19;;;22.13;88.01
42669;BME280;29384;42.028;21.388;2022-09-09T06:01:01;98664.75;;;22.26;87.54
42669;BME280;29384;42.028;21.388;2022-09-09T06:03:27;98664.47;;;22.01;86.90
42669;BME280;29384;42.028;21.388;2022-09-09T06:06:04;98659.00;;;21.98;86.58
42669;BME280;29384;42.028;21.388;2022-09-09T06:08:37;98652.63;;;21.90;88.06
42669;BME280;29384;42.028;21.388;2022-09-09T06:11:12;98676.75;;;21.85;85.33
42669;BME280;29384;42.028;21.388;2022-09-09T06:13:38;98673.47;;;21.79;86.83
42669;BME280;29384;42.028;21.388;2022-09-09T06:16:09;98665.03;;;21.77;88.80
42669;BME280;29384;42.028;21.388;2022-09-09T06:18:36;98662.38;;;21.77;88.05
42669;BME280;29384;42.028;21.388;2022-09-09T06:21:04;98663.44;;;21.76;85.82
42669;BME280;29384;42.028;21.388;2022-09-09T06:23:32;98658.75;;;21.82;86.25
42669;BME280;29384;42.028;21.388;2022-09-09T06:26:05;98653.09;;;21.83;86.55
42669;BME280;29384;42.028;21.388;2022-09-09T06:28:31;98647.13;;;21.95;85.59
42669;BME280;29384;42.028;21.388;2022-09-09T06:30:58;98650.53;;;22.13;87.57
42669;BME280;29384;42.028;21.388;2022-09-09T06:33:24;98642.19;;;22.32;86.50
42669;BME280;29384;42.028;21.388;2022-09-09T06:35:53;98639.50;;;22.40;83.41
42669;BME280;29384;42.028;21.388;2022-09-09T06:38:19;98645.38;;;22.55;82.43
42669;BME280;29384;42.028;21.388;2022-09-09T06:40:57;98643.66;;;22.50;83.30
42669;BME280;29384;42.028;21.388;2022-09-09T06:43:26;98632.59;;;22.39;83.66
42669;BME280;29384;42.028;21.388;2022-09-09T06:49:13;98644.75;;;22.19;83.20
42669;BME280;29384;42.028;21.388;2022-09-09T06:51:39;98644.69;;;22.28;83.35
42669;BME280;29384;42.028;21.388;2022-09-09T06:54:08;98640.63;;;22.31;84.03
42669;BME280;29384;42.028;21.388;2022-09-09T06:56:36;98652.16;;;22.43;84.59
42669;BME280;29384;42.028;21.388;2022-09-09T06:59:04;98655.91;;;22.51;84.17
42669;BME280;29384;42.028;21.388;2022-09-09T07:01:32;98660.22;;;22.64;81.74
42669;BME280;29384;42.028;21.388;2022-09-09T07:03:59;98665.16;;;22.75;82.22
42669;BME280;29384;42.028;21.388;2022-09-09T07:06:27;98666.75;;;22.76;82.52
42669;BME280;29384;42.028;21.388;2022-09-09T07:08:58;98661.56;;;22.79;82.38
42669;BME280;29384;42.028;21.388;2022-09-09T07:11:26;98665.78;;;22.80;83.04
42669;BME280;29384;42.028;21.388;2022-09-09T07:13:52;98674.69;;;22.84;82.50
42669;BME280;29384;42.028;21.388;2022-09-09T07:16:19;98665.88;;;22.93;83.14
42669;BME280;29384;42.028;21.388;2022-09-09T07:18:46;98661.72;;;23.04;81.06
42669;BME280;29384;42.028;21.388;2022-09-09T07:21:13;98661.84;;;23.07;79.98
42669;BME280;29384;42.028;21.388;2022-09-09T07:23:39;98659.88;;;23.04;79.37
42669;BME280;29384;42.028;21.388;2022-09-09T07:26:13;98663.56;;;23.12;80.61
42669;BME280;29384;42.028;21.388;2022-09-09T07:28:39;98644.44;;;23.10;80.75
42669;BME280;29384;42.028;21.388;2022-09-09T07:34:41;98648.88;;;23.60;78.82
42669;BME280;29384;42.028;21.388;2022-09-09T07:37:06;98660.44;;;23.73;76.84
42669;BME280;29384;42.028;21.388;2022-09-09T07:39:32;98663.25;;;23.89;78.28
42669;BME280;29384;42.028;21.388;2022-09-09T07:41:57;98663.16;;;23.97;76.41
42669;BME280;29384;42.028;21.388;2022-09-09T07:44:24;98660.97;;;24.12;75.36
42669;BME280;29384;42.028;21.388;2022-09-09T07:46:52;98660.66;;;24.25;75.11
42669;BME280;29384;42.028;21.388;2022-09-09T07:49:17;98653.06;;;24.27;74.14
42669;BME280;29384;42.028;21.388;2022-09-09T07:51:45;98653.88;;;24.28;75.07
42669;BME280;29384;42.028;21.388;2022-09-09T07:54:12;98651.44;;;24.35;74.94
42669;BME280;29384;42.028;21.388;2022-09-09T07:56:39;98664.47;;;24.37;75.50
42669;BME280;29384;42.028;21.388;2022-09-09T07:59:05;98659.25;;;24.40;74.89
42669;BME280;29384;42.028;21.388;2022-09-09T08:01:46;98674.38;;;24.36;74.47
42669;BME280;29384;42.028;21.388;2022-09-09T08:04:23;98679.59;;;24.32;75.02
42669;BME280;29384;42.028;21.388;2022-09-09T08:06:54;98668.72;;;24.62;73.44
42669;BME280;29384;42.028;21.388;2022-09-09T08:09:21;98665.16;;;24.46;73.44
42669;BME280;29384;42.028;21.388;2022-09-09T08:11:46;98663.22;;;24.34;74.01
42669;BME280;29384;42.028;21.388;2022-09-09T08:14:13;98645.88;;;24.40;75.37
42669;BME280;29384;42.028;21.388;2022-09-09T08:16:41;98656.88;;;24.26;74.96
42669;BME280;29384;42.028;21.388;2022-09-09T08:19:07;98659.03;;;24.58;72.97
42669;BME280;29384;42.028;21.388;2022-09-09T08:21:35;98661.78;;;24.37;73.78
42669;BME280;29384;42.028;21.388;2022-09-09T08:24:02;98661.66;;;24.21;75.03
42669;BME280;29384;42.028;21.388;2022-09-09T08:26:36;98679.97;;;24.43;74.53
42669;BME280;29384;42.028;21.388;2022-09-09T08:29:04;98676.75;;;24.50;74.25
42669;BME280;29384;42.028;21.388;2022-09-09T08:34:52;98681.66;;;24.60;73.25
42669;BME280;29384;42.028;21.388;2022-09-09T08:37:17;98691.25;;;24.49;72.52
42669;BME280;29384;42.028;21.388;2022-09-09T08:39:42;98697.53;;;24.32;73.91
42669;BME280;29384;42.028;21.388;2022-09-09T08:42:23;98691.78;;;24.42;74.22
42669;BME280;29384;42.028;21.388;2022-09-09T08:45:22;98695.41;;;24.25;75.10
42669;BME280;29384;42.028;21.388;2022-09-09T08:50:30;98713.88;;;24.30;73.65
42669;BME280;29384;42.028;21.388;2022-09-09T08:53:17;98716.72;;;24.13;74.64
42669;BME280;29384;42.028;21.388;2022-09-09T08:55:50;98720.41;;;24.08;75.47
42669;BME280;29384;42.028;21.388;2022-09-09T08:58:45;98720.56;;;23.91;76.99
42669;BME280;29384;42.028;21.388;2022-09-09T09:01:33;98744.16;;;23.89;78.26
42669;BME280;29384;42.028;21.388;2022-09-09T09:09:56;98759.09;;;23.69;81.39
42669;BME280;29384;42.028;21.388;2022-09-09T09:12:28;98758.03;;;23.61;79.85
42669;BME280;29384;42.028;21.388;2022-09-09T09:18:17;98744.03;;;23.44;82.33
42669;BME280;29384;42.028;21.388;2022-09-09T09:23:42;98735.16;;;23.31;85.97
42669;BME280;29384;42.028;21.388;2022-09-09T09:26:10;98740.34;;;23.27;91.56
42669;BME280;29384;42.028;21.388;2022-09-09T09:28:39;98729.75;;;23.19;92.82
42669;BME280;29384;42.028;21.388;2022-09-09T09:34:27;98714.59;;;23.31;98.45
42669;BME280;29384;42.028;21.388;2022-09-09T09:36:56;98716.44;;;23.40;96.19
42669;BME280;29384;42.028;21.388;2022-09-09T09:39:28;98724.44;;;23.40;96.73
42669;BME280;29384;42.028;21.388;2022-09-09T09:41:54;98706.00;;;23.47;94.85
42669;BME280;29384;42.028;21.388;2022-09-09T09:44:31;98703.38;;;23.59;92.60
42669;BME280;29384;42.028;21.388;2022-09-09T09:50:19;98703.50;;;23.71;88.66
42669;BME280;29384;42.028;21.388;2022-09-09T09:52:54;98712.28;;;23.72;88.29
42669;BME280;29384;42.028;21.388;2022-09-09T09:55:21;98708.81;;;23.71;87.45
42669;BME280;29384;42.028;21.388;2022-09-09T09:57:48;98708.50;;;23.73;87.99
42669;BME280;29384;42.028;21.388;2022-09-09T10:00:16;98705.94;;;23.76;87.70
42669;BME280;29384;42.028;21.388;2022-09-09T10:02:45;98707.75;;;23.84;88.37
42669;BME280;29384;42.028;21.388;2022-09-09T10:05:16;98711.13;;;23.94;87.72
42669;BME280;29384;42.028;21.388;2022-09-09T10:07:43;98705.56;;;23.99;86.43
42669;BME280;29384;42.028;21.388;2022-09-09T10:10:15;98706.38;;;23.99;83.91
42669;BME280;29384;42.028;21.388;2022-09-09T10:13:38;98713.81;;;24.06;85.46
42669;BME280;29384;42.028;21.388;2022-09-09T10:19:11;98724.06;;;24.04;83.75
42669;BME280;29384;42.028;21.388;2022-09-09T10:22:22;98724.34;;;23.90;82.56
42669;BME280;29384;42.028;21.388;2022-09-09T10:25:14;98716.97;;;23.75;82.70
42669;BME280;29384;42.028;21.388;2022-09-09T10:27:51;98725.22;;;23.61;83.06
42669;BME280;29384;42.028;21.388;2022-09-09T10:33:50;98719.88;;;23.40;83.89
42669;BME280;29384;42.028;21.388;2022-09-09T10:36:21;98719.28;;;23.34;86.27
42669;BME280;29384;42.028;21.388;2022-09-09T10:38:57;98722.53;;;23.19;86.54
42669;BME280;29384;42.028;21.388;2022-09-09T10:44:56;98715.53;;;23.06;90.28
42669;BME280;29384;42.028;21.388;2022-09-09T10:48:02;98717.28;;;23.02;93.33
42669;BME280;29384;42.028;21.388;2022-09-09T10:50:42;98728.28;;;23.00;95.22
42669;BME280;29384;42.028;21.388;2022-09-09T10:56:16;98737.41;;;22.90;99.00
42669;BME280;29384;42.028;21.388;2022-09-09T10:58:51;98741.53;;;22.79;100.00
42669;BME280;29384;42.028;21.388;2022-09-09T11:05:19;98760.44;;;22.57;100.00
42669;BME280;29384;42.028;21.388;2022-09-09T11:07:50;98770.34;;;22.39;100.00
42669;BME280;29384;42.028;21.388;2022-09-09T11:10:28;98768.69;;;22.17;100.00
42669;BME280;29384;42.028;21.388;2022-09-09T11:13:01;98777.91;;;22.02;100.00
42669;BME280;29384;42.028;21.388;2022-09-09T11:15:36;98766.31;;;21.89;100.00
42669;BME280;29384;42.028;21.388;2022-09-09T11:18:06;98764.44;;;21.81;100.00
42669;BME280;29384;42.028;21.388;2022-09-09T11:20:36;98755.50;;;21.68;100.00
42669;BME280;29384;42.028;21.388;2022-09-09T11:23:38;98742.03;;;21.65;100.00
42669;BME280;29384;42.028;21.388;2022-09-09T11:26:07;98743.78;;;21.61;100.00
42669;BME280;29384;42.028;21.388;2022-09-09T11:32:06;98735.00;;;21.69;100.00
42669;BME280;29384;42.028;21.388;2022-09-09T11:35:09;98730.31;;;21.75;100.00
42669;BME280;29384;42.028;21.388;2022-09-09T11:40:24;98731.72;;;21.63;100.00
42669;BME280;29384;42.028;21.388;2022-09-09T11:43:10;98723.91;;;21.67;100.00
42669;BME280;29384;42.028;21.388;2022-09-09T11:49:05;98724.66;;;21.85;100.00
42669;BME280;29384;42.028;21.388;2022-09-09T11:51:32;98716.22;;;21.91;100.00
42669;BME280;29384;42.028;21.388;2022-09-09T11:54:04;98704.59;;;21.96;100.00
42669;BME280;29384;42.028;21.388;2022-09-09T11:57:28;98703.19;;;21.99;100.00
42669;BME280;29384;42.028;21.388;2022-09-09T11:59:56;98696.78;;;22.00;100.00
42669;BME280;29384;42.028;21.388;2022-09-09T12:05:44;98671.09;;;21.95;100.00
42669;BME280;29384;42.028;21.388;2022-09-09T12:08:16;98673.44;;;21.96;100.00
42669;BME280;29384;42.028;21.388;2022-09-09T12:10:56;98681.28;;;22.02;100.00
42669;BME280;29384;42.028;21.388;2022-09-09T12:13:26;98678.91;;;22.00;100.00
42669;BME280;29384;42.028;21.388;2022-09-09T12:15:56;98684.22;;;22.00;100.00
42669;BME280;29384;42.028;21.388;2022-09-09T12:18:37;98678.13;;;22.00;100.00
42669;BME280;29384;42.028;21.388;2022-09-09T12:23:40;98652.28;;;22.09;100.00
42669;BME280;29384;42.028;21.388;2022-09-09T12:31:12;98632.16;;;22.29;100.00
42669;BME280;29384;42.028;21.388;2022-09-09T12:33:43;98632.88;;;22.47;100.00
42669;BME280;29384;42.028;21.388;2022-09-09T12:36:23;98621.84;;;22.57;100.00
42669;BME280;29384;42.028;21.388;2022-09-09T12:38:50;98616.34;;;22.62;100.00
42669;BME280;29384;42.028;21.388;2022-09-09T12:41:25;98614.25;;;22.67;100.00
42669;BME280;29384;42.028;21.388;2022-09-09T12:44:06;98619.22;;;22.78;100.00
42669;BME280;29384;42.028;21.388;2022-09-09T12:46:40;98628.25;;;22.85;100.00
42669;BME280;29384;42.028;21.388;2022-09-09T12:51:51;98611.47;;;22.85;100.00
42669;BME280;29384;42.028;21.388;2022-09-09T12:54:17;98612.38;;;22.89;100.00
42669;BME280;29384;42.028;21.388;2022-09-09T12:56:48;98594.78;;;22.97;100.00
42669;BME280;29384;42.028;21.388;2022-09-09T12:59:26;98591.44;;;23.08;100.00
42669;BME280;29384;42.028;21.388;2022-09-09T13:01:59;98588.13;;;23.11;100.00
42669;BME280;29384;42.028;21.388;2022-09-09T13:04:25;98592.66;;;23.11;100.00
42669;BME280;29384;42.028;21.388;2022-09-09T13:06:50;98579.13;;;23.16;100.00
42669;BME280;29384;42.028;21.388;2022-09-09T13:09:18;98578.47;;;23.19;100.00
42669;BME280;29384;42.028;21.388;2022-09-09T13:11:53;98573.56;;;23.21;100.00
42669;BME280;29384;42.028;21.388;2022-09-09T13:14:33;98574.03;;;23.23;100.00
42669;BME280;29384;42.028;21.388;2022-09-09T13:17:04;98571.63;;;23.30;100.00
42669;BME280;29384;42.028;21.388;2022-09-09T13:19:35;98564.84;;;23.33;100.00
42669;BME280;29384;42.028;21.388;2022-09-09T13:22:21;98562.06;;;23.29;96.90
42669;BME280;29384;42.028;21.388;2022-09-09T13:24:46;98561.41;;;23.32;97.19
42669;BME280;29384;42.028;21.388;2022-09-09T13:27:34;98551.50;;;23.33;96.46
42669;BME280;29384;42.028;21.388;2022-09-09T13:30:20;98547.84;;;23.37;98.50
42669;BME280;29384;42.028;21.388;2022-09-09T13:32:59;98550.97;;;23.40;94.53
42669;BME280;29384;42.028;21.388;2022-09-09T13:35:26;98547.84;;;23.37;95.05
42669;BME280;29384;42.028;21.388;2022-09-09T13:37:51;98544.31;;;23.46;95.48
42669;BME280;29384;42.028;21.388;2022-09-09T13:40:20;98547.44;;;23.48;93.75
42669;BME280;29384;42.028;21.388;2022-09-09T13:42:46;98532.19;;;23.48;94.54
42669;BME280;29384;42.028;21.388;2022-09-09T13:45:21;98525.31;;;23.47;94.40
42669;BME280;29384;42.028;21.388;2022-09-09T13:47:47;98519.41;;;23.42;92.24
42669;BME280;29384;42.028;21.388;2022-09-09T13:52:58;98528.19;;;23.42;92.07
42669;BME280;29384;42.028;21.388;2022-09-09T13:55:26;98519.09;;;23.43;89.94
42669;BME280;29384;42.028;21.388;2022-09-09T14:00:25;98509.97;;;23.44;93.00
42669;BME280;29384;42.028;21.388;2022-09-09T14:02:51;98510.72;;;23.45;91.22
42669;BME280;29384;42.028;21.388;2022-09-09T14:05:17;98505.63;;;23.52;92.46
42669;BME280;29384;42.028;21.388;2022-09-09T14:07:44;98500.53;;;23.59;92.10
42669;BME280;29384;42.028;21.388;2022-09-09T14:10:10;98495.19;;;23.59;92.55
42669;BME280;29384;42.028;21.388;2022-09-09T14:12:36;98515.75;;;23.58;89.55
42669;BME280;29384;42.028;21.388;2022-09-09T14:15:03;98506.53;;;23.56;88.74
42669;BME280;29384;42.028;21.388;2022-09-09T14:17:29;98505.75;;;23.55;88.50
42669;BME280;29384;42.028;21.388;2022-09-09T14:19:55;98503.06;;;23.55;88.16
42669;BME280;29384;42.028;21.388;2022-09-09T14:22:21;98492.09;;;23.57;89.02
42669;BME280;29384;42.028;21.388;2022-09-09T14:24:47;98486.06;;;23.60;90.19
42669;BME280;29384;42.028;21.388;2022-09-09T14:27:12;98484.31;;;23.64;90.99
42669;BME280;29384;42.028;21.388;2022-09-09T14:29:37;98487.91;;;23.68;90.45
42669;BME280;29384;42.028;21.388;2022-09-09T14:32:03;98487.22;;;23.71;88.93
42669;BME280;29384;42.028;21.388;2022-09-09T14:34:29;98488.44;;;23.74;88.88
42669;BME280;29384;42.028;21.388;2022-09-09T14:36:54;98485.88;;;23.77;88.41
42669;BME280;29384;42.028;21.388;2022-09-09T14:39:19;98479.44;;;23.78;87.81
42669;BME280;29384;42.028;21.388;2022-09-09T14:41:45;98477.31;;;23.84;87.74
42669;BME280;29384;42.028;21.388;2022-09-09T14:44:11;98473.88;;;23.83;87.67
42669;BME280;29384;42.028;21.388;2022-09-09T14:46:36;98470.84;;;23.85;86.12
42669;BME280;29384;42.028;21.388;2022-09-09T14:49:02;98463.97;;;23.84;84.42
42669;BME280;29384;42.028;21.388;2022-09-09T14:51:27;98461.19;;;23.80;86.13
42669;BME280;29384;42.028;21.388;2022-09-09T14:53:55;98450.75;;;23.75;85.98
42669;BME280;29384;42.028;21.388;2022-09-09T14:56:24;98447.19;;;23.71;83.89
42669;BME280;29384;42.028;21.388;2022-09-09T14:58:53;98461.19;;;23.68;84.50
42669;BME280;29384;42.028;21.388;2022-09-09T15:01:20;98451.63;;;23.67;83.19
42669;BME280;29384;42.028;21.388;2022-09-09T15:04:02;98438.59;;;23.66;83.69
42669;BME280;29384;42.028;21.388;2022-09-09T15:06:30;98446.38;;;23.71;83.55
42669;BME280;29384;42.028;21.388;2022-09-09T15:08:58;98442.94;;;23.70;83.59
42669;BME280;29384;42.028;21.388;2022-09-09T15:11:27;98444.16;;;23.73;84.94
42669;BME280;29384;42.028;21.388;2022-09-09T15:13:53;98439.50;;;23.70;85.84
42669;BME280;29384;42.028;21.388;2022-09-09T15:16:20;98445.28;;;23.72;87.10
42669;BME280;29384;42.028;21.388;2022-09-09T15:18:51;98438.38;;;23.71;86.24
42669;BME280;29384;42.028;21.388;2022-09-09T15:21:21;98440.13;;;23.67;85.96
42669;BME280;29384;42.028;21.388;2022-09-09T15:23:48;98438.59;;;23.66;85.84
42669;BME280;29384;42.028;21.388;2022-09-09T15:26:14;98436.91;;;23.61;85.66